Winchester, Nevada
Current Conditions -  °F | °C
As of 5:56 PM on Wednesday 26 Nov 2014 (Local Time) from KLAS Reporting Station
Clear Clear  
Wind Chill: 62°   Ceiling: Unl
Heat Index: 62°   Visibility: 10mi
Dew Point: 19°   Wind: 8mph
Humidity: 19%   Direction: 200°SSW
Pressure: 30.26"   Gusts: NA
Location:  36.13°N, 115.11°W
Report Text: KLAS 270156Z 20007KT 10SM CLR 17/M07 A3026 RMK AO2 SLP242 T01671072
Loading
Personal Weather Stations






























Interactive Weather Map New forecast layout! Learn more

10-Day Weather Forecast

Advertisements
Track Severe Weather on mobile